createdAt,value
2023-05-04T00:01:50.920Z,3.33
2023-05-04T00:04:53.920Z,4.60
2023-05-04T00:07:56.293Z,3.15
2023-05-04T00:10:58.511Z,2.67
2023-05-04T00:14:02.258Z,2.72
2023-05-04T00:17:08.121Z,3.17
2023-05-04T00:23:13.113Z,3.05
2023-05-04T00:26:15.325Z,2.88
2023-05-04T00:29:18.330Z,3.05
2023-05-04T00:32:22.224Z,4.35
2023-05-04T00:35:27.101Z,2.42
2023-05-04T00:38:31.663Z,2.67
2023-05-04T00:41:35.376Z,4.03
2023-05-04T00:44:41.964Z,2.78
2023-05-04T00:47:45.005Z,2.85
2023-05-04T00:50:48.090Z,2.60
2023-05-04T00:53:50.959Z,2.55
2023-05-04T00:56:53.826Z,4.38
2023-05-04T00:59:57.282Z,3.55
2023-05-04T01:02:59.473Z,4.07
2023-05-04T01:06:29.519Z,2.40
2023-05-04T01:09:31.575Z,3.53
2023-05-04T01:12:44.922Z,2.65
2023-05-04T01:15:48.611Z,2.97
2023-05-04T01:18:50.694Z,3.20
2023-05-04T01:21:52.999Z,2.92
2023-05-04T01:24:55.664Z,3.25
2023-05-04T01:28:06.033Z,4.10
2023-05-04T01:31:13.988Z,3.90
2023-05-04T01:34:18.079Z,4.90
2023-05-04T01:37:20.297Z,4.00
2023-05-04T01:40:22.704Z,3.47
2023-05-04T01:43:25.400Z,4.35
2023-05-04T01:46:30.553Z,2.38
2023-05-04T01:49:32.993Z,3.28
2023-05-04T01:52:35.416Z,2.88
2023-05-04T01:55:37.886Z,3.63
2023-05-04T01:58:40.354Z,4.20
2023-05-04T02:01:42.805Z,4.70
2023-05-04T02:04:45.186Z,2.83
2023-05-04T02:07:47.406Z,3.15
2023-05-04T02:10:49.874Z,2.95
2023-05-04T02:13:52.338Z,2.67
2023-05-04T02:16:54.924Z,3.60
2023-05-04T02:19:57.226Z,4.57
2023-05-04T02:22:59.499Z,3.50
2023-05-04T02:26:02.101Z,3.47
2023-05-04T02:29:06.040Z,4.70
2023-05-04T02:32:08.413Z,3.75
2023-05-04T02:35:10.785Z,4.28
2023-05-04T02:38:12.977Z,3.17
2023-05-04T02:41:15.300Z,3.60
2023-05-04T02:44:18.353Z,4.07
2023-05-04T02:47:20.681Z,3.40
2023-05-04T02:50:23.994Z,3.55
2023-05-04T02:53:26.151Z,3.15
2023-05-04T02:56:29.736Z,4.18
2023-05-04T03:02:35.095Z,3.67
2023-05-04T03:05:37.212Z,3.38
2023-05-04T03:08:39.518Z,2.97
2023-05-04T03:11:41.901Z,2.58
2023-05-04T03:14:44.082Z,3.17
2023-05-04T03:17:46.418Z,3.55
2023-05-04T03:20:48.822Z,2.25
2023-05-04T03:23:51.249Z,3.15
2023-05-04T03:26:53.486Z,3.65
2023-05-04T03:29:56.090Z,4.20
2023-05-04T03:32:58.330Z,2.72
2023-05-04T03:36:00.539Z,3.67
2023-05-04T03:39:02.685Z,3.05
2023-05-04T03:42:04.821Z,3.00
2023-05-04T03:45:07.610Z,3.20
2023-05-04T03:48:09.902Z,3.35
2023-05-04T03:51:12.186Z,3.10
2023-05-04T03:54:14.350Z,4.28
2023-05-04T03:57:16.847Z,3.38
2023-05-04T04:00:19.340Z,4.05
2023-05-04T04:03:21.820Z,3.08
2023-05-04T04:06:24.364Z,3.38
2023-05-04T04:09:26.705Z,2.70
2023-05-04T04:12:29.174Z,3.60
2023-05-04T04:15:38.293Z,3.05
2023-05-04T04:18:43.129Z,4.57
2023-05-04T04:21:45.336Z,3.25
2023-05-04T04:24:47.462Z,3.35
2023-05-04T04:27:49.768Z,2.80
2023-05-04T04:30:51.980Z,4.45
2023-05-04T04:33:54.363Z,3.30
2023-05-04T04:36:56.498Z,4.57
2023-05-04T04:39:58.689Z,3.83
2023-05-04T04:43:00.860Z,3.55
2023-05-04T04:46:04.248Z,4.07
2023-05-04T04:49:07.443Z,3.10
2023-05-04T04:52:11.879Z,4.50
2023-05-04T04:55:16.878Z,3.30
2023-05-04T04:58:19.146Z,3.45
2023-05-04T05:01:21.417Z,4.15
2023-05-04T05:04:24.041Z,4.47
2023-05-04T05:07:26.216Z,3.05
2023-05-04T05:10:28.756Z,4.15
2023-05-04T05:13:31.560Z,3.33
2023-05-04T05:16:34.103Z,4.05
2023-05-04T05:19:38.139Z,3.60
2023-05-04T05:22:41.693Z,3.42
2023-05-04T05:25:44.716Z,3.45
2023-05-04T05:28:47.550Z,3.72
2023-05-04T05:31:49.838Z,3.17
2023-05-04T05:34:52.279Z,3.63
2023-05-04T05:37:55.581Z,3.63
2023-05-04T05:40:57.768Z,4.72
2023-05-04T05:44:00.072Z,3.65
2023-05-04T05:47:02.762Z,4.07
2023-05-04T05:50:05.439Z,3.83
2023-05-04T05:53:08.126Z,5.20
2023-05-04T05:56:10.250Z,3.30
2023-05-04T05:59:16.487Z,3.90
2023-05-04T06:02:18.709Z,3.47
2023-05-04T06:05:21.158Z,3.50
2023-05-04T06:08:23.599Z,3.33
2023-05-04T06:11:27.094Z,3.47
2023-05-04T06:14:29.363Z,5.43
2023-05-04T06:17:31.546Z,3.72
2023-05-04T06:20:33.849Z,4.18
2023-05-04T06:23:36.899Z,3.30
2023-05-04T06:26:39.321Z,4.13
2023-05-04T06:29:41.625Z,4.93
2023-05-04T06:32:44.097Z,3.92
2023-05-04T06:35:46.324Z,3.35
2023-05-04T06:38:48.617Z,5.00
2023-05-04T06:41:53.765Z,3.53
2023-05-04T06:44:58.719Z,4.18
2023-05-04T06:48:01.323Z,4.18
2023-05-04T06:51:03.526Z,5.15
2023-05-04T06:54:06.447Z,4.97
2023-05-04T06:57:08.668Z,3.85
2023-05-04T07:00:11.520Z,4.00
2023-05-04T07:03:13.853Z,4.00
2023-05-04T07:06:16.168Z,3.03
2023-05-04T07:09:21.719Z,4.80
2023-05-04T07:12:23.897Z,3.47
2023-05-04T07:15:26.012Z,3.88
2023-05-04T07:18:28.269Z,3.85
2023-05-04T07:21:31.067Z,3.80
2023-05-04T07:24:33.512Z,3.80
2023-05-04T07:27:36.093Z,2.90
2023-05-04T07:30:38.530Z,2.90
2023-05-04T07:33:41.251Z,3.50
2023-05-04T07:36:43.914Z,3.75
2023-05-04T07:39:46.360Z,2.70
2023-05-04T07:42:48.806Z,3.70
2023-05-04T07:45:53.624Z,3.55
2023-05-04T07:48:57.153Z,3.15
2023-05-04T07:51:59.839Z,2.05
2023-05-04T07:55:02.117Z,2.65
2023-05-04T07:58:04.569Z,4.13
2023-05-04T08:01:07.109Z,2.63
2023-05-04T08:04:09.603Z,2.60
2023-05-04T08:07:11.952Z,2.22
2023-05-04T08:10:14.361Z,2.80
2023-05-04T08:13:16.697Z,1.90
2023-05-04T08:16:19.062Z,3.23
2023-05-04T08:19:21.270Z,2.92
2023-05-04T08:22:24.014Z,2.13
2023-05-04T08:25:27.365Z,3.17
2023-05-04T08:28:37.850Z,3.13
2023-05-04T08:31:43.176Z,2.15
2023-05-04T08:34:45.488Z,3.80
2023-05-04T08:37:48.920Z,3.75
2023-05-04T08:40:51.285Z,2.55
2023-05-04T08:43:53.798Z,2.47
2023-05-04T08:46:57.202Z,3.95
2023-05-04T08:49:59.483Z,2.92
2023-05-04T08:53:05.854Z,2.35
2023-05-04T08:56:09.769Z,5.03
2023-05-04T08:59:19.725Z,2.70
2023-05-04T09:02:23.573Z,2.95
2023-05-04T09:05:29.046Z,2.92
2023-05-04T09:08:31.552Z,2.35
2023-05-04T09:11:33.888Z,3.00
2023-05-04T09:14:36.713Z,2.85
2023-05-04T09:17:50.977Z,2.35
2023-05-04T09:21:02.735Z,3.25
2023-05-04T09:24:05.340Z,2.67
2023-05-04T09:27:12.270Z,1.98
2023-05-04T09:30:14.607Z,2.22
2023-05-04T09:33:17.204Z,2.03
2023-05-04T09:36:22.057Z,2.25
2023-05-04T09:39:24.448Z,1.90
2023-05-04T09:42:27.175Z,1.98
2023-05-04T09:45:46.610Z,1.80
2023-05-04T09:48:57.697Z,2.30
2023-05-04T09:52:03.103Z,2.00
2023-05-04T09:55:10.369Z,2.28
2023-05-04T09:58:16.861Z,2.13
2023-05-04T10:01:19.628Z,2.45
2023-05-04T10:04:22.159Z,2.25
2023-05-04T10:07:25.182Z,3.03
2023-05-04T10:13:30.803Z,2.08
2023-05-04T10:16:50.014Z,2.83
2023-05-04T10:20:30.563Z,2.65
2023-05-04T10:23:51.320Z,2.63
2023-05-04T10:27:37.410Z,2.15
2023-05-04T10:30:40.314Z,2.28
2023-05-04T10:33:43.784Z,2.10
2023-05-04T10:36:46.741Z,2.72
2023-05-04T10:39:56.241Z,1.95
2023-05-04T10:42:58.695Z,2.83
2023-05-04T10:46:02.624Z,2.72
2023-05-04T10:49:17.036Z,2.35
2023-05-04T10:52:19.273Z,1.83
2023-05-04T10:55:22.257Z,1.92
2023-05-04T10:58:29.533Z,3.63
2023-05-04T11:01:43.984Z,1.95
2023-05-04T11:04:46.423Z,2.20
2023-05-04T11:07:53.381Z,2.17
2023-05-04T11:11:07.170Z,2.42
2023-05-04T11:14:11.280Z,2.25
2023-05-04T11:20:21.855Z,1.80
2023-05-04T11:23:24.752Z,2.03
2023-05-04T11:26:28.605Z,2.03
2023-05-04T11:29:30.825Z,1.48
2023-05-04T11:32:38.948Z,2.15
2023-05-04T11:35:43.097Z,1.60
2023-05-04T11:38:45.492Z,2.60
2023-05-04T11:41:47.761Z,1.40
2023-05-04T11:44:51.146Z,2.10
2023-05-04T11:47:53.981Z,1.73
2023-05-04T11:50:56.780Z,1.40
2023-05-04T11:54:01.339Z,1.60
2023-05-04T11:57:04.367Z,2.47
2023-05-04T12:00:08.550Z,1.95
2023-05-04T12:03:13.549Z,2.30
2023-05-04T12:06:16.576Z,1.60
2023-05-04T12:09:19.088Z,1.90
2023-05-04T12:12:21.745Z,2.22
2023-05-04T12:15:30.326Z,2.38
2023-05-04T12:18:32.479Z,1.98
2023-05-04T12:21:36.286Z,2.75
2023-05-04T12:24:40.199Z,2.40
2023-05-04T12:27:43.434Z,2.40
2023-05-04T12:30:45.620Z,2.78
2023-05-04T12:33:47.899Z,3.42
2023-05-04T12:36:51.394Z,3.08
2023-05-04T12:39:53.664Z,2.50
2023-05-04T12:42:56.250Z,3.30
2023-05-04T12:46:00.666Z,2.25
2023-05-04T12:49:03.221Z,2.72
2023-05-04T12:52:05.984Z,1.95
2023-05-04T12:55:09.335Z,1.92
2023-05-04T12:58:11.602Z,2.00
2023-05-04T13:01:14.428Z,3.00
2023-05-04T13:04:17.000Z,2.10
2023-05-04T13:07:20.080Z,1.58
2023-05-04T13:10:23.268Z,4.00
2023-05-04T13:13:28.894Z,2.80
2023-05-04T13:16:31.195Z,2.45
2023-05-04T13:19:33.632Z,2.65
2023-05-04T13:22:36.967Z,2.63
2023-05-04T13:25:39.127Z,2.92
2023-05-04T13:28:41.389Z,3.13
2023-05-04T13:31:44.901Z,3.60
2023-05-04T13:34:48.386Z,2.63
2023-05-04T13:37:51.025Z,2.47
2023-05-04T13:40:53.393Z,2.90
2023-05-04T13:43:56.131Z,2.58
2023-05-04T13:47:04.611Z,3.03
2023-05-04T13:50:08.128Z,3.25
2023-05-04T13:53:11.377Z,2.72
2023-05-04T13:56:13.433Z,1.88
2023-05-04T13:59:15.763Z,2.58
2023-05-04T14:02:18.114Z,2.13
2023-05-04T14:05:20.822Z,2.00
2023-05-04T14:08:23.561Z,2.95
2023-05-04T14:11:25.809Z,2.50
2023-05-04T14:14:27.967Z,4.07
2023-05-04T14:17:30.091Z,2.72
2023-05-04T14:20:32.577Z,2.63
2023-05-04T14:23:39.815Z,2.85
2023-05-04T14:26:42.168Z,2.20
2023-05-04T14:29:47.166Z,2.70
2023-05-04T14:32:58.406Z,3.38
2023-05-04T14:36:01.068Z,2.92
2023-05-04T14:39:03.768Z,1.90
2023-05-04T14:42:06.182Z,2.95
2023-05-04T14:45:10.485Z,2.65
2023-05-04T14:48:12.900Z,2.85
2023-05-04T14:51:26.545Z,2.25
2023-05-04T14:54:31.258Z,2.20
2023-05-04T14:57:33.955Z,2.25
2023-05-04T15:00:38.264Z,2.17
2023-05-04T15:03:42.238Z,2.28
2023-05-04T15:06:44.642Z,3.25
2023-05-04T15:09:47.227Z,2.30
2023-05-04T15:12:49.610Z,3.17
2023-05-04T15:15:55.046Z,4.53
2023-05-04T15:18:57.251Z,3.08
2023-05-04T15:21:59.494Z,3.72
2023-05-04T15:25:02.070Z,2.97
2023-05-04T15:28:10.031Z,1.90
2023-05-04T15:31:14.220Z,2.95
2023-05-04T15:34:18.585Z,2.50
2023-05-04T15:37:20.957Z,2.97
2023-05-04T15:40:23.663Z,2.83
2023-05-04T15:43:25.884Z,2.85
2023-05-04T15:46:29.185Z,2.10
2023-05-04T15:49:34.628Z,3.30
2023-05-04T15:52:37.136Z,3.28
2023-05-04T15:55:39.883Z,5.53
2023-05-04T15:58:44.932Z,3.80
2023-05-04T16:01:47.325Z,2.80
2023-05-04T16:04:49.660Z,2.72
2023-05-04T16:07:54.667Z,2.88
2023-05-04T16:10:58.226Z,3.28
2023-05-04T16:14:00.634Z,2.95
2023-05-04T16:17:03.293Z,3.47
2023-05-04T16:20:06.715Z,2.30
2023-05-04T16:23:09.078Z,3.97
2023-05-04T16:26:12.079Z,2.55
2023-05-04T16:29:15.589Z,3.13
2023-05-04T16:32:17.909Z,2.17
2023-05-04T16:35:21.855Z,2.38
2023-05-04T16:38:26.768Z,2.20
2023-05-04T16:41:31.045Z,2.60
2023-05-04T16:44:33.458Z,3.28
2023-05-04T16:47:35.921Z,1.65
2023-05-04T16:50:39.048Z,2.17
2023-05-04T16:53:41.499Z,2.80
2023-05-04T16:56:43.952Z,1.85
2023-05-04T16:59:46.271Z,1.98
2023-05-04T17:02:49.345Z,3.55
2023-05-04T17:05:52.430Z,2.33
2023-05-04T17:08:54.599Z,2.30
2023-05-04T17:11:57.020Z,2.45
2023-05-04T17:14:59.400Z,2.67
2023-05-04T17:18:02.509Z,1.63
2023-05-04T17:21:04.938Z,2.10
2023-05-04T17:24:07.228Z,1.80
2023-05-04T17:27:09.483Z,1.88
2023-05-04T17:30:12.533Z,2.88
2023-05-04T17:33:15.268Z,1.83
2023-05-04T17:36:17.747Z,2.10
2023-05-04T17:39:22.893Z,1.73
2023-05-04T17:42:25.114Z,2.97
2023-05-04T17:45:27.452Z,2.22
2023-05-04T17:48:34.104Z,1.90
2023-05-04T17:51:36.908Z,2.78
2023-05-04T17:54:39.382Z,2.75
2023-05-04T17:57:41.717Z,1.90
2023-05-04T18:00:45.611Z,2.35
2023-05-04T18:03:48.754Z,2.07
2023-05-04T18:06:51.360Z,1.92
2023-05-04T18:09:54.102Z,2.22
2023-05-04T18:13:00.399Z,2.53
2023-05-04T18:16:03.040Z,1.70
2023-05-04T18:19:06.777Z,2.17
2023-05-04T18:22:09.430Z,2.45
2023-05-04T18:25:15.607Z,3.28
2023-05-04T18:28:20.750Z,3.67
2023-05-04T18:31:23.206Z,2.63
2023-05-04T18:34:25.467Z,3.17
2023-05-04T18:37:31.617Z,3.78
2023-05-04T18:40:33.763Z,3.55
2023-05-04T18:43:36.295Z,3.55
2023-05-04T18:46:40.994Z,3.38
2023-05-04T18:49:44.765Z,3.67
2023-05-04T18:52:49.956Z,3.88
2023-05-04T18:56:10.422Z,2.70
2023-05-04T18:59:13.713Z,2.83
2023-05-04T19:02:15.933Z,3.08
2023-05-04T19:05:18.615Z,2.95
2023-05-04T19:08:21.662Z,2.83
2023-05-04T19:11:23.893Z,3.28
2023-05-04T19:14:30.269Z,3.20
2023-05-04T19:17:34.111Z,3.10
2023-05-04T19:20:39.977Z,2.75
2023-05-04T19:23:45.130Z,3.83
2023-05-04T19:26:49.080Z,3.47
2023-05-04T19:29:53.187Z,3.25
2023-05-04T19:32:55.476Z,5.30
2023-05-04T19:35:57.717Z,4.22
2023-05-04T19:39:00.412Z,4.28
2023-05-04T19:42:04.780Z,3.72
2023-05-04T19:45:08.347Z,3.95
2023-05-04T19:48:14.967Z,4.00
2023-05-04T19:51:17.158Z,5.10
2023-05-04T19:54:22.410Z,3.85
2023-05-04T19:57:24.624Z,5.75
2023-05-04T20:00:27.160Z,4.43
2023-05-04T20:03:32.294Z,5.07
2023-05-04T20:06:36.133Z,6.32
2023-05-04T20:09:39.219Z,3.67
2023-05-04T20:12:42.320Z,4.20
2023-05-04T20:15:45.116Z,4.88
2023-05-04T20:18:47.482Z,3.92
2023-05-04T20:21:51.525Z,4.13
2023-05-04T20:24:53.854Z,4.55
2023-05-04T20:27:56.282Z,4.18
2023-05-04T20:30:58.670Z,4.75
2023-05-04T20:34:01.043Z,4.75
2023-05-04T20:37:03.166Z,4.28
2023-05-04T20:40:06.733Z,4.55
2023-05-04T20:43:09.420Z,4.47
2023-05-04T20:46:12.286Z,4.45
2023-05-04T20:49:15.237Z,4.95
2023-05-04T20:52:17.330Z,5.57
2023-05-04T20:55:19.590Z,5.68
2023-05-04T20:58:21.820Z,4.18
2023-05-04T21:01:30.229Z,6.28
2023-05-04T21:04:32.376Z,4.95
2023-05-04T21:07:35.722Z,4.03
2023-05-04T21:10:38.154Z,6.85
2023-05-04T21:13:40.628Z,4.47
2023-05-04T21:16:43.491Z,4.07
2023-05-04T21:19:46.923Z,5.05
2023-05-04T21:22:49.320Z,4.40
2023-05-04T21:25:59.413Z,4.82
2023-05-04T21:29:01.860Z,4.45
2023-05-04T21:32:06.018Z,5.20
2023-05-04T21:35:08.557Z,6.45
2023-05-04T21:38:12.984Z,4.70
2023-05-04T21:41:16.700Z,4.70
2023-05-04T21:44:19.045Z,4.85
2023-05-04T21:47:21.519Z,5.07
2023-05-04T21:50:24.292Z,5.57
2023-05-04T21:53:27.586Z,6.28
2023-05-04T21:56:30.008Z,4.57
2023-05-04T21:59:32.354Z,5.95
2023-05-04T22:02:34.826Z,5.22
2023-05-04T22:05:37.461Z,7.15
2023-05-04T22:08:39.852Z,4.75
2023-05-04T22:11:42.237Z,4.82
2023-05-04T22:14:44.294Z,6.35
2023-05-04T22:17:46.795Z,6.30
2023-05-04T22:20:49.089Z,7.43
2023-05-04T22:23:51.553Z,4.82
2023-05-04T22:26:53.714Z,6.10
2023-05-04T22:29:55.925Z,6.35
2023-05-04T22:32:58.495Z,6.53
2023-05-04T22:36:00.883Z,6.35
2023-05-04T22:39:03.574Z,6.55
2023-05-04T22:42:05.897Z,4.72
2023-05-04T22:45:08.928Z,4.60
2023-05-04T22:48:11.114Z,6.90
2023-05-04T22:51:14.379Z,5.30
2023-05-04T22:54:18.120Z,5.47
2023-05-04T22:57:20.398Z,4.85
2023-05-04T23:00:23.200Z,5.38
2023-05-04T23:03:25.773Z,5.00
2023-05-04T23:06:28.693Z,5.22
2023-05-04T23:09:30.933Z,4.53
2023-05-04T23:12:33.545Z,5.53
2023-05-04T23:15:35.843Z,6.30
2023-05-04T23:18:38.070Z,5.28
2023-05-04T23:21:40.576Z,5.47
2023-05-04T23:24:43.657Z,5.88
2023-05-04T23:27:46.161Z,5.65
2023-05-04T23:30:48.268Z,5.80
2023-05-04T23:33:51.045Z,5.80
2023-05-04T23:36:54.667Z,5.82
2023-05-04T23:39:56.888Z,6.07
2023-05-04T23:42:59.020Z,5.28
2023-05-04T23:46:03.943Z,6.10
2023-05-04T23:52:08.391Z,5.15
2023-05-04T23:55:14.563Z,5.78
2023-05-04T23:58:16.963Z,6.03
